sensor_id;sensor_type;location;lat;lon;timestamp;P1;durP1;ratioP1;P2;durP2;ratioP2
44304;SDS011;30019;50.576;8.568;2022-12-29T00:01:07;1.92;;;1.67;;
44304;SDS011;30019;50.576;8.568;2022-12-29T00:03:33;2.05;;;1.65;;
44304;SDS011;30019;50.576;8.568;2022-12-29T00:05:58;2.65;;;1.80;;
44304;SDS011;30019;50.576;8.568;2022-12-29T00:08:24;1.83;;;1.73;;
44304;SDS011;30019;50.576;8.568;2022-12-29T00:11:05;1.75;;;1.60;;
44304;SDS011;30019;50.576;8.568;2022-12-29T00:13:44;2.75;;;1.52;;
44304;SDS011;30019;50.576;8.568;2022-12-29T00:16:29;2.67;;;1.58;;
44304;SDS011;30019;50.576;8.568;2022-12-29T00:18:55;1.92;;;1.48;;
44304;SDS011;30019;50.576;8.568;2022-12-29T00:21:21;1.70;;;1.35;;
44304;SDS011;30019;50.576;8.568;2022-12-29T00:24:09;3.47;;;1.42;;
44304;SDS011;30019;50.576;8.568;2022-12-29T00:26:56;1.50;;;1.40;;
44304;SDS011;30019;50.576;8.568;2022-12-29T00:29:53;5.97;;;2.30;;
44304;SDS011;30019;50.576;8.568;2022-12-29T00:32:37;2.35;;;1.48;;
44304;SDS011;30019;50.576;8.568;2022-12-29T00:35:26;1.52;;;1.25;;
44304;SDS011;30019;50.576;8.568;2022-12-29T00:37:59;2.05;;;1.48;;
44304;SDS011;30019;50.576;8.568;2022-12-29T00:40:46;1.50;;;1.30;;
44304;SDS011;30019;50.576;8.568;2022-12-29T00:46:15;1.47;;;1.17;;
44304;SDS011;30019;50.576;8.568;2022-12-29T00:48:40;1.92;;;1.30;;
44304;SDS011;30019;50.576;8.568;2022-12-29T00:51:24;1.60;;;1.15;;
44304;SDS011;30019;50.576;8.568;2022-12-29T00:53:50;2.17;;;1.27;;
44304;SDS011;30019;50.576;8.568;2022-12-29T00:56:15;3.80;;;1.23;;
44304;SDS011;30019;50.576;8.568;2022-12-29T00:58:41;2.90;;;1.40;;
44304;SDS011;30019;50.576;8.568;2022-12-29T01:01:07;2.00;;;1.10;;
44304;SDS011;30019;50.576;8.568;2022-12-29T01:03:34;2.70;;;1.10;;
44304;SDS011;30019;50.576;8.568;2022-12-29T01:06:01;1.62;;;1.02;;
44304;SDS011;30019;50.576;8.568;2022-12-29T01:08:34;1.55;;;1.35;;
44304;SDS011;30019;50.576;8.568;2022-12-29T01:11:05;1.70;;;1.12;;
44304;SDS011;30019;50.576;8.568;2022-12-29T01:13:32;1.08;;;1.08;;
44304;SDS011;30019;50.576;8.568;2022-12-29T01:15:58;1.98;;;1.20;;
44304;SDS011;30019;50.576;8.568;2022-12-29T01:18:24;1.50;;;1.40;;
44304;SDS011;30019;50.576;8.568;2022-12-29T01:20:50;1.67;;;1.20;;
44304;SDS011;30019;50.576;8.568;2022-12-29T01:23:22;1.77;;;1.05;;
44304;SDS011;30019;50.576;8.568;2022-12-29T01:25:48;2.83;;;1.27;;
44304;SDS011;30019;50.576;8.568;2022-12-29T01:28:13;0.95;;;0.95;;
44304;SDS011;30019;50.576;8.568;2022-12-29T01:30:39;1.80;;;1.60;;
44304;SDS011;30019;50.576;8.568;2022-12-29T01:33:04;2.62;;;1.30;;
44304;SDS011;30019;50.576;8.568;2022-12-29T01:35:30;1.33;;;1.15;;
44304;SDS011;30019;50.576;8.568;2022-12-29T01:37:56;3.12;;;1.05;;
44304;SDS011;30019;50.576;8.568;2022-12-29T01:40:24;3.72;;;1.45;;
44304;SDS011;30019;50.576;8.568;2022-12-29T01:42:53;2.70;;;1.00;;
44304;SDS011;30019;50.576;8.568;2022-12-29T01:45:19;2.85;;;1.37;;
44304;SDS011;30019;50.576;8.568;2022-12-29T01:48:03;1.80;;;1.48;;
44304;SDS011;30019;50.576;8.568;2022-12-29T01:50:41;1.73;;;1.10;;
44304;SDS011;30019;50.576;8.568;2022-12-29T01:53:14;1.70;;;1.30;;
44304;SDS011;30019;50.576;8.568;2022-12-29T01:55:54;2.08;;;1.27;;
44304;SDS011;30019;50.576;8.568;2022-12-29T01:58:24;1.12;;;1.02;;
44304;SDS011;30019;50.576;8.568;2022-12-29T02:00:53;1.20;;;1.10;;
44304;SDS011;30019;50.576;8.568;2022-12-29T02:03:19;1.40;;;1.08;;
44304;SDS011;30019;50.576;8.568;2022-12-29T02:05:53;1.27;;;1.05;;
44304;SDS011;30019;50.576;8.568;2022-12-29T02:10:48;2.10;;;0.90;;
44304;SDS011;30019;50.576;8.568;2022-12-29T02:13:17;1.45;;;1.23;;
44304;SDS011;30019;50.576;8.568;2022-12-29T02:18:26;1.92;;;1.00;;
44304;SDS011;30019;50.576;8.568;2022-12-29T02:32:02;0.93;;;0.80;;
44304;SDS011;30019;50.576;8.568;2022-12-29T02:37:26;0.95;;;0.80;;
44304;SDS011;30019;50.576;8.568;2022-12-29T02:40:07;1.60;;;1.00;;
44304;SDS011;30019;50.576;8.568;2022-12-29T02:43:02;1.33;;;0.95;;
44304;SDS011;30019;50.576;8.568;2022-12-29T02:48:45;2.05;;;0.95;;
44304;SDS011;30019;50.576;8.568;2022-12-29T02:51:23;1.00;;;0.85;;
44304;SDS011;30019;50.576;8.568;2022-12-29T02:54:06;1.25;;;1.20;;
44304;SDS011;30019;50.576;8.568;2022-12-29T02:56:51;1.27;;;0.80;;
44304;SDS011;30019;50.576;8.568;2022-12-29T02:59:17;1.00;;;0.82;;
44304;SDS011;30019;50.576;8.568;2022-12-29T03:05:00;1.37;;;1.10;;
44304;SDS011;30019;50.576;8.568;2022-12-29T03:10:48;1.67;;;1.05;;
44304;SDS011;30019;50.576;8.568;2022-12-29T03:13:43;1.02;;;0.93;;
44304;SDS011;30019;50.576;8.568;2022-12-29T03:16:40;0.93;;;0.80;;
44304;SDS011;30019;50.576;8.568;2022-12-29T03:19:19;1.85;;;1.17;;
44304;SDS011;30019;50.576;8.568;2022-12-29T03:21:49;2.75;;;0.95;;
44304;SDS011;30019;50.576;8.568;2022-12-29T03:24:40;1.00;;;1.00;;
44304;SDS011;30019;50.576;8.568;2022-12-29T03:27:10;1.30;;;1.20;;
44304;SDS011;30019;50.576;8.568;2022-12-29T03:29:41;1.27;;;0.80;;
44304;SDS011;30019;50.576;8.568;2022-12-29T03:32:12;1.05;;;0.90;;
44304;SDS011;30019;50.576;8.568;2022-12-29T03:34:39;1.50;;;1.00;;
44304;SDS011;30019;50.576;8.568;2022-12-29T03:37:15;1.12;;;0.98;;
44304;SDS011;30019;50.576;8.568;2022-12-29T03:39:43;1.00;;;1.00;;
44304;SDS011;30019;50.576;8.568;2022-12-29T03:42:11;1.10;;;1.00;;
44304;SDS011;30019;50.576;8.568;2022-12-29T03:44:41;0.98;;;0.98;;
44304;SDS011;30019;50.576;8.568;2022-12-29T03:47:09;0.80;;;0.80;;
44304;SDS011;30019;50.576;8.568;2022-12-29T03:49:36;1.20;;;1.10;;
44304;SDS011;30019;50.576;8.568;2022-12-29T03:52:02;0.95;;;0.95;;
44304;SDS011;30019;50.576;8.568;2022-12-29T03:54:31;1.73;;;1.10;;
44304;SDS011;30019;50.576;8.568;2022-12-29T03:56:58;2.15;;;0.95;;
44304;SDS011;30019;50.576;8.568;2022-12-29T03:59:23;1.10;;;1.00;;
44304;SDS011;30019;50.576;8.568;2022-12-29T04:01:49;0.82;;;0.73;;
44304;SDS011;30019;50.576;8.568;2022-12-29T04:04:14;1.33;;;1.00;;
44304;SDS011;30019;50.576;8.568;2022-12-29T04:06:40;0.77;;;0.77;;
44304;SDS011;30019;50.576;8.568;2022-12-29T04:09:06;1.42;;;0.85;;
44304;SDS011;30019;50.576;8.568;2022-12-29T04:11:32;0.83;;;0.83;;
44304;SDS011;30019;50.576;8.568;2022-12-29T04:13:57;1.05;;;0.90;;
44304;SDS011;30019;50.576;8.568;2022-12-29T04:16:23;0.98;;;0.80;;
44304;SDS011;30019;50.576;8.568;2022-12-29T04:18:49;2.03;;;0.93;;
44304;SDS011;30019;50.576;8.568;2022-12-29T04:21:14;1.58;;;0.90;;
44304;SDS011;30019;50.576;8.568;2022-12-29T04:23:40;1.08;;;0.98;;
44304;SDS011;30019;50.576;8.568;2022-12-29T04:26:06;1.15;;;1.05;;
44304;SDS011;30019;50.576;8.568;2022-12-29T04:28:34;1.30;;;0.90;;
44304;SDS011;30019;50.576;8.568;2022-12-29T04:31:00;0.98;;;0.77;;
44304;SDS011;30019;50.576;8.568;2022-12-29T04:33:26;1.62;;;0.90;;
44304;SDS011;30019;50.576;8.568;2022-12-29T04:35:52;1.17;;;0.90;;
44304;SDS011;30019;50.576;8.568;2022-12-29T04:38:19;0.70;;;0.70;;
44304;SDS011;30019;50.576;8.568;2022-12-29T04:40:45;3.60;;;0.80;;
44304;SDS011;30019;50.576;8.568;2022-12-29T04:43:11;1.00;;;0.90;;
44304;SDS011;30019;50.576;8.568;2022-12-29T04:45:37;3.55;;;1.75;;
44304;SDS011;30019;50.576;8.568;2022-12-29T04:48:04;2.42;;;1.00;;
44304;SDS011;30019;50.576;8.568;2022-12-29T04:50:30;0.80;;;0.80;;
44304;SDS011;30019;50.576;8.568;2022-12-29T04:52:55;1.52;;;0.82;;
44304;SDS011;30019;50.576;8.568;2022-12-29T04:55:21;1.40;;;0.80;;
44304;SDS011;30019;50.576;8.568;2022-12-29T04:57:46;1.87;;;0.82;;
44304;SDS011;30019;50.576;8.568;2022-12-29T05:00:12;4.03;;;1.20;;
44304;SDS011;30019;50.576;8.568;2022-12-29T05:02:38;2.05;;;0.88;;
44304;SDS011;30019;50.576;8.568;2022-12-29T05:05:04;1.90;;;1.02;;
44304;SDS011;30019;50.576;8.568;2022-12-29T05:07:30;1.55;;;0.98;;
44304;SDS011;30019;50.576;8.568;2022-12-29T05:09:58;2.08;;;1.30;;
44304;SDS011;30019;50.576;8.568;2022-12-29T05:12:23;1.85;;;1.17;;
44304;SDS011;30019;50.576;8.568;2022-12-29T05:14:49;1.73;;;1.30;;
44304;SDS011;30019;50.576;8.568;2022-12-29T05:17:15;4.05;;;1.40;;
44304;SDS011;30019;50.576;8.568;2022-12-29T05:19:40;1.35;;;1.25;;
44304;SDS011;30019;50.576;8.568;2022-12-29T05:22:06;3.83;;;1.40;;
44304;SDS011;30019;50.576;8.568;2022-12-29T05:24:31;2.70;;;1.48;;
44304;SDS011;30019;50.576;8.568;2022-12-29T05:26:57;8.43;;;2.03;;
44304;SDS011;30019;50.576;8.568;2022-12-29T05:29:22;1.55;;;1.30;;
44304;SDS011;30019;50.576;8.568;2022-12-29T05:31:48;1.62;;;1.52;;
44304;SDS011;30019;50.576;8.568;2022-12-29T05:34:13;2.55;;;1.87;;
44304;SDS011;30019;50.576;8.568;2022-12-29T05:36:39;1.92;;;1.52;;
44304;SDS011;30019;50.576;8.568;2022-12-29T05:39:05;2.45;;;1.90;;
44304;SDS011;30019;50.576;8.568;2022-12-29T05:41:33;3.17;;;1.83;;
44304;SDS011;30019;50.576;8.568;2022-12-29T05:44:00;4.97;;;1.60;;
44304;SDS011;30019;50.576;8.568;2022-12-29T05:46:26;4.10;;;1.42;;
44304;SDS011;30019;50.576;8.568;2022-12-29T05:48:52;3.25;;;1.85;;
44304;SDS011;30019;50.576;8.568;2022-12-29T05:51:17;6.32;;;1.83;;
44304;SDS011;30019;50.576;8.568;2022-12-29T05:53:43;4.25;;;1.80;;
44304;SDS011;30019;50.576;8.568;2022-12-29T05:56:08;4.72;;;2.05;;
44304;SDS011;30019;50.576;8.568;2022-12-29T05:58:34;2.75;;;1.62;;
44304;SDS011;30019;50.576;8.568;2022-12-29T06:00:59;3.85;;;1.73;;
44304;SDS011;30019;50.576;8.568;2022-12-29T06:03:25;6.30;;;1.62;;
44304;SDS011;30019;50.576;8.568;2022-12-29T06:05:51;5.10;;;1.80;;
44304;SDS011;30019;50.576;8.568;2022-12-29T06:08:16;4.32;;;2.10;;
44304;SDS011;30019;50.576;8.568;2022-12-29T06:10:42;4.53;;;2.05;;
44304;SDS011;30019;50.576;8.568;2022-12-29T06:13:08;3.78;;;1.60;;
44304;SDS011;30019;50.576;8.568;2022-12-29T06:39:11;2.10;;;1.23;;
44304;SDS011;30019;50.576;8.568;2022-12-29T06:42:02;2.72;;;1.37;;
44304;SDS011;30019;50.576;8.568;2022-12-29T06:44:28;2.87;;;1.17;;
44304;SDS011;30019;50.576;8.568;2022-12-29T06:46:53;2.33;;;1.30;;
44304;SDS011;30019;50.576;8.568;2022-12-29T06:49:19;4.80;;;1.60;;
44304;SDS011;30019;50.576;8.568;2022-12-29T06:51:45;1.30;;;1.02;;
44304;SDS011;30019;50.576;8.568;2022-12-29T06:54:11;2.28;;;1.00;;
44304;SDS011;30019;50.576;8.568;2022-12-29T06:56:36;1.17;;;1.02;;
44304;SDS011;30019;50.576;8.568;2022-12-29T06:59:02;4.80;;;1.90;;
44304;SDS011;30019;50.576;8.568;2022-12-29T07:01:28;3.45;;;1.52;;
44304;SDS011;30019;50.576;8.568;2022-12-29T07:03:53;5.70;;;1.50;;
44304;SDS011;30019;50.576;8.568;2022-12-29T07:06:19;1.77;;;1.05;;
44304;SDS011;30019;50.576;8.568;2022-12-29T07:08:45;3.37;;;1.15;;
44304;SDS011;30019;50.576;8.568;2022-12-29T07:14:32;6.50;;;1.35;;
44304;SDS011;30019;50.576;8.568;2022-12-29T07:16:58;4.00;;;1.40;;
44304;SDS011;30019;50.576;8.568;2022-12-29T07:19:23;2.90;;;1.47;;
44304;SDS011;30019;50.576;8.568;2022-12-29T07:21:49;2.83;;;1.67;;
44304;SDS011;30019;50.576;8.568;2022-12-29T07:24:15;2.87;;;1.50;;
44304;SDS011;30019;50.576;8.568;2022-12-29T07:26:40;3.35;;;1.62;;
44304;SDS011;30019;50.576;8.568;2022-12-29T07:29:06;2.05;;;1.10;;
44304;SDS011;30019;50.576;8.568;2022-12-29T07:31:32;2.45;;;1.23;;
44304;SDS011;30019;50.576;8.568;2022-12-29T07:33:57;5.43;;;1.60;;
44304;SDS011;30019;50.576;8.568;2022-12-29T07:36:23;1.42;;;1.00;;
44304;SDS011;30019;50.576;8.568;2022-12-29T07:39:09;2.55;;;1.12;;
44304;SDS011;30019;50.576;8.568;2022-12-29T07:41:36;0.82;;;0.80;;
44304;SDS011;30019;50.576;8.568;2022-12-29T07:44:02;2.58;;;0.80;;
44304;SDS011;30019;50.576;8.568;2022-12-29T07:46:27;1.42;;;0.82;;
44304;SDS011;30019;50.576;8.568;2022-12-29T07:48:53;2.28;;;1.10;;
44304;SDS011;30019;50.576;8.568;2022-12-29T07:51:19;1.10;;;1.00;;
44304;SDS011;30019;50.576;8.568;2022-12-29T07:53:45;1.20;;;1.10;;
44304;SDS011;30019;50.576;8.568;2022-12-29T07:56:10;3.75;;;1.62;;
44304;SDS011;30019;50.576;8.568;2022-12-29T07:58:38;2.33;;;1.48;;
44304;SDS011;30019;50.576;8.568;2022-12-29T08:01:04;0.85;;;0.85;;
44304;SDS011;30019;50.576;8.568;2022-12-29T08:03:30;4.00;;;1.20;;
44304;SDS011;30019;50.576;8.568;2022-12-29T08:05:56;2.15;;;1.00;;
44304;SDS011;30019;50.576;8.568;2022-12-29T08:08:22;2.28;;;0.95;;
44304;SDS011;30019;50.576;8.568;2022-12-29T08:10:47;2.93;;;1.50;;
44304;SDS011;30019;50.576;8.568;2022-12-29T08:13:13;1.40;;;1.10;;
44304;SDS011;30019;50.576;8.568;2022-12-29T08:15:39;2.35;;;1.20;;
44304;SDS011;30019;50.576;8.568;2022-12-29T08:18:04;2.00;;;1.10;;
44304;SDS011;30019;50.576;8.568;2022-12-29T08:20:30;1.45;;;1.00;;
44304;SDS011;30019;50.576;8.568;2022-12-29T08:22:56;2.00;;;1.25;;
44304;SDS011;30019;50.576;8.568;2022-12-29T08:25:22;3.20;;;1.20;;
44304;SDS011;30019;50.576;8.568;2022-12-29T08:27:48;2.60;;;1.55;;
44304;SDS011;30019;50.576;8.568;2022-12-29T08:30:13;4.28;;;1.33;;
44304;SDS011;30019;50.576;8.568;2022-12-29T08:32:40;2.15;;;1.67;;
44304;SDS011;30019;50.576;8.568;2022-12-29T08:35:06;3.83;;;1.60;;
44304;SDS011;30019;50.576;8.568;2022-12-29T08:37:32;3.87;;;1.98;;
44304;SDS011;30019;50.576;8.568;2022-12-29T08:39:58;5.75;;;1.73;;
44304;SDS011;30019;50.576;8.568;2022-12-29T08:42:24;3.25;;;1.55;;
44304;SDS011;30019;50.576;8.568;2022-12-29T08:44:55;1.30;;;1.20;;
44304;SDS011;30019;50.576;8.568;2022-12-29T08:47:24;2.75;;;1.33;;
44304;SDS011;30019;50.576;8.568;2022-12-29T08:49:50;1.40;;;1.30;;
44304;SDS011;30019;50.576;8.568;2022-12-29T08:52:16;1.27;;;1.17;;
44304;SDS011;30019;50.576;8.568;2022-12-29T08:54:48;1.77;;;1.17;;
44304;SDS011;30019;50.576;8.568;2022-12-29T08:57:23;2.70;;;1.45;;
44304;SDS011;30019;50.576;8.568;2022-12-29T15:01:05;4.95;;;1.10;;
44304;SDS011;30019;50.576;8.568;2022-12-29T15:03:45;7.10;;;1.70;;
44304;SDS011;30019;50.576;8.568;2022-12-29T15:06:51;5.07;;;1.55;;
44304;SDS011;30019;50.576;8.568;2022-12-29T15:11:51;3.90;;;1.17;;
44304;SDS011;30019;50.576;8.568;2022-12-29T15:14:29;8.00;;;1.53;;
44304;SDS011;30019;50.576;8.568;2022-12-29T15:19:51;6.30;;;1.87;;
44304;SDS011;30019;50.576;8.568;2022-12-29T15:22:18;9.57;;;1.55;;
44304;SDS011;30019;50.576;8.568;2022-12-29T15:24:44;6.97;;;1.62;;
44304;SDS011;30019;50.576;8.568;2022-12-29T15:27:13;6.37;;;1.12;;
44304;SDS011;30019;50.576;8.568;2022-12-29T15:29:41;5.68;;;1.73;;
44304;SDS011;30019;50.576;8.568;2022-12-29T15:32:18;5.70;;;1.65;;
44304;SDS011;30019;50.576;8.568;2022-12-29T15:34:46;4.97;;;1.00;;
44304;SDS011;30019;50.576;8.568;2022-12-29T15:37:21;7.60;;;1.60;;
44304;SDS011;30019;50.576;8.568;2022-12-29T15:39:52;4.40;;;1.20;;
44304;SDS011;30019;50.576;8.568;2022-12-29T15:42:24;6.97;;;1.50;;
44304;SDS011;30019;50.576;8.568;2022-12-29T15:45:02;8.75;;;1.85;;
44304;SDS011;30019;50.576;8.568;2022-12-29T15:47:30;3.85;;;1.30;;
44304;SDS011;30019;50.576;8.568;2022-12-29T15:50:20;5.30;;;1.27;;
44304;SDS011;30019;50.576;8.568;2022-12-29T15:52:50;6.67;;;2.03;;
44304;SDS011;30019;50.576;8.568;2022-12-29T15:55:21;12.40;;;3.42;;
44304;SDS011;30019;50.576;8.568;2022-12-29T15:58:04;5.37;;;1.45;;
44304;SDS011;30019;50.576;8.568;2022-12-29T16:00:32;8.80;;;1.62;;
44304;SDS011;30019;50.576;8.568;2022-12-29T16:03:01;4.15;;;1.23;;
44304;SDS011;30019;50.576;8.568;2022-12-29T16:05:36;5.93;;;1.05;;
44304;SDS011;30019;50.576;8.568;2022-12-29T16:08:04;4.80;;;1.33;;
44304;SDS011;30019;50.576;8.568;2022-12-29T16:11:02;8.20;;;1.75;;
44304;SDS011;30019;50.576;8.568;2022-12-29T16:14:01;5.57;;;2.00;;
44304;SDS011;30019;50.576;8.568;2022-12-29T16:16:40;7.70;;;1.25;;
44304;SDS011;30019;50.576;8.568;2022-12-29T16:19:17;6.55;;;1.37;;
44304;SDS011;30019;50.576;8.568;2022-12-29T16:21:49;8.88;;;1.42;;
44304;SDS011;30019;50.576;8.568;2022-12-29T16:24:16;6.15;;;1.80;;
44304;SDS011;30019;50.576;8.568;2022-12-29T16:26:51;7.37;;;1.77;;
44304;SDS011;30019;50.576;8.568;2022-12-29T16:29:23;7.35;;;1.40;;
44304;SDS011;30019;50.576;8.568;2022-12-29T16:31:56;4.40;;;1.37;;
44304;SDS011;30019;50.576;8.568;2022-12-29T16:39:47;8.18;;;1.90;;
44304;SDS011;30019;50.576;8.568;2022-12-29T16:42:32;10.18;;;1.65;;
44304;SDS011;30019;50.576;8.568;2022-12-29T16:45:08;8.85;;;1.83;;
44304;SDS011;30019;50.576;8.568;2022-12-29T16:50:20;2.67;;;1.37;;
44304;SDS011;30019;50.576;8.568;2022-12-29T16:52:50;8.23;;;1.92;;
44304;SDS011;30019;50.576;8.568;2022-12-29T16:55:16;4.47;;;1.23;;
44304;SDS011;30019;50.576;8.568;2022-12-29T16:57:43;5.90;;;1.60;;
44304;SDS011;30019;50.576;8.568;2022-12-29T17:00:18;7.05;;;2.00;;
44304;SDS011;30019;50.576;8.568;2022-12-29T17:02:49;11.57;;;3.25;;
44304;SDS011;30019;50.576;8.568;2022-12-29T17:05:17;6.28;;;1.62;;
44304;SDS011;30019;50.576;8.568;2022-12-29T17:07:44;3.25;;;1.27;;
44304;SDS011;30019;50.576;8.568;2022-12-29T17:10:10;7.25;;;1.40;;
44304;SDS011;30019;50.576;8.568;2022-12-29T17:12:37;7.43;;;2.33;;
44304;SDS011;30019;50.576;8.568;2022-12-29T17:17:46;4.68;;;1.67;;
44304;SDS011;30019;50.576;8.568;2022-12-29T17:20:18;7.10;;;2.25;;
44304;SDS011;30019;50.576;8.568;2022-12-29T17:22:48;9.23;;;2.17;;
44304;SDS011;30019;50.576;8.568;2022-12-29T17:25:16;5.53;;;2.10;;
44304;SDS011;30019;50.576;8.568;2022-12-29T17:27:51;7.32;;;1.80;;
44304;SDS011;30019;50.576;8.568;2022-12-29T17:30:21;6.63;;;2.00;;
44304;SDS011;30019;50.576;8.568;2022-12-29T17:32:57;7.93;;;1.62;;
44304;SDS011;30019;50.576;8.568;2022-12-29T17:35:24;7.22;;;1.70;;
44304;SDS011;30019;50.576;8.568;2022-12-29T17:37:50;6.00;;;1.75;;
44304;SDS011;30019;50.576;8.568;2022-12-29T17:40:23;6.82;;;1.42;;
44304;SDS011;30019;50.576;8.568;2022-12-29T17:42:52;7.60;;;1.73;;
44304;SDS011;30019;50.576;8.568;2022-12-29T17:45:20;11.23;;;3.35;;
44304;SDS011;30019;50.576;8.568;2022-12-29T17:47:48;8.05;;;1.55;;
44304;SDS011;30019;50.576;8.568;2022-12-29T17:50:18;7.95;;;1.80;;
44304;SDS011;30019;50.576;8.568;2022-12-29T17:52:48;8.55;;;1.95;;
44304;SDS011;30019;50.576;8.568;2022-12-29T17:55:22;10.30;;;1.95;;
44304;SDS011;30019;50.576;8.568;2022-12-29T17:57:48;8.82;;;2.12;;
44304;SDS011;30019;50.576;8.568;2022-12-29T18:02:42;9.13;;;2.22;;
44304;SDS011;30019;50.576;8.568;2022-12-29T18:05:12;12.75;;;2.50;;
44304;SDS011;30019;50.576;8.568;2022-12-29T18:07:44;9.10;;;2.10;;
44304;SDS011;30019;50.576;8.568;2022-12-29T18:10:09;10.73;;;2.62;;
44304;SDS011;30019;50.576;8.568;2022-12-29T18:12:40;8.15;;;2.10;;
44304;SDS011;30019;50.576;8.568;2022-12-29T18:15:16;8.10;;;1.90;;
44304;SDS011;30019;50.576;8.568;2022-12-29T18:17:45;9.98;;;3.05;;
44304;SDS011;30019;50.576;8.568;2022-12-29T18:20:10;7.07;;;2.60;;
44304;SDS011;30019;50.576;8.568;2022-12-29T18:22:36;11.40;;;3.03;;
44304;SDS011;30019;50.576;8.568;2022-12-29T18:25:02;7.87;;;2.60;;
44304;SDS011;30019;50.576;8.568;2022-12-29T18:27:37;9.32;;;3.42;;
44304;SDS011;30019;50.576;8.568;2022-12-29T18:30:02;16.23;;;4.68;;
44304;SDS011;30019;50.576;8.568;2022-12-29T18:32:33;12.43;;;4.30;;
44304;SDS011;30019;50.576;8.568;2022-12-29T18:34:58;10.60;;;3.60;;
44304;SDS011;30019;50.576;8.568;2022-12-29T18:37:24;10.80;;;3.17;;
44304;SDS011;30019;50.576;8.568;2022-12-29T18:39:49;14.23;;;2.85;;
44304;SDS011;30019;50.576;8.568;2022-12-29T18:42:21;10.57;;;2.65;;
44304;SDS011;30019;50.576;8.568;2022-12-29T18:44:47;10.25;;;3.90;;
44304;SDS011;30019;50.576;8.568;2022-12-29T18:47:12;9.02;;;3.15;;
44304;SDS011;30019;50.576;8.568;2022-12-29T18:49:38;12.88;;;2.80;;
44304;SDS011;30019;50.576;8.568;2022-12-29T18:52:03;10.50;;;4.28;;
44304;SDS011;30019;50.576;8.568;2022-12-29T18:54:30;11.95;;;3.80;;
44304;SDS011;30019;50.576;8.568;2022-12-29T18:56:57;13.02;;;4.10;;
44304;SDS011;30019;50.576;8.568;2022-12-29T18:59:23;16.02;;;4.28;;
44304;SDS011;30019;50.576;8.568;2022-12-29T19:01:49;9.93;;;3.83;;
44304;SDS011;30019;50.576;8.568;2022-12-29T19:04:14;15.88;;;4.97;;
44304;SDS011;30019;50.576;8.568;2022-12-29T19:06:41;14.25;;;5.40;;
44304;SDS011;30019;50.576;8.568;2022-12-29T19:09:07;21.27;;;7.72;;
44304;SDS011;30019;50.576;8.568;2022-12-29T19:11:35;15.70;;;4.75;;
44304;SDS011;30019;50.576;8.568;2022-12-29T19:14:01;13.18;;;4.43;;
44304;SDS011;30019;50.576;8.568;2022-12-29T19:16:26;17.50;;;4.65;;
44304;SDS011;30019;50.576;8.568;2022-12-29T19:18:52;15.75;;;4.82;;
44304;SDS011;30019;50.576;8.568;2022-12-29T19:21:18;11.30;;;4.60;;
44304;SDS011;30019;50.576;8.568;2022-12-29T19:23:48;15.80;;;4.80;;
44304;SDS011;30019;50.576;8.568;2022-12-29T19:26:28;14.00;;;3.97;;
44304;SDS011;30019;50.576;8.568;2022-12-29T19:28:55;15.48;;;4.22;;
44304;SDS011;30019;50.576;8.568;2022-12-29T19:31:21;12.23;;;3.40;;
44304;SDS011;30019;50.576;8.568;2022-12-29T19:33:46;9.52;;;2.70;;
44304;SDS011;30019;50.576;8.568;2022-12-29T19:36:12;12.80;;;3.00;;
44304;SDS011;30019;50.576;8.568;2022-12-29T19:38:40;14.87;;;2.83;;
44304;SDS011;30019;50.576;8.568;2022-12-29T19:41:06;16.62;;;3.55;;
44304;SDS011;30019;50.576;8.568;2022-12-29T19:43:31;8.50;;;2.55;;
44304;SDS011;30019;50.576;8.568;2022-12-29T19:45:57;17.02;;;3.33;;
44304;SDS011;30019;50.576;8.568;2022-12-29T19:48:23;11.23;;;2.70;;
44304;SDS011;30019;50.576;8.568;2022-12-29T19:50:48;6.30;;;2.05;;
44304;SDS011;30019;50.576;8.568;2022-12-29T19:53:14;7.30;;;2.30;;
44304;SDS011;30019;50.576;8.568;2022-12-29T19:55:41;9.52;;;2.62;;
44304;SDS011;30019;50.576;8.568;2022-12-29T19:58:07;10.90;;;2.55;;
44304;SDS011;30019;50.576;8.568;2022-12-29T20:00:32;6.55;;;1.92;;
44304;SDS011;30019;50.576;8.568;2022-12-29T20:02:58;11.12;;;2.53;;
44304;SDS011;30019;50.576;8.568;2022-12-29T20:05:24;9.23;;;2.15;;
44304;SDS011;30019;50.576;8.568;2022-12-29T20:07:49;18.67;;;5.15;;
44304;SDS011;30019;50.576;8.568;2022-12-29T20:10:15;16.80;;;3.78;;
44304;SDS011;30019;50.576;8.568;2022-12-29T20:12:40;13.48;;;2.65;;
44304;SDS011;30019;50.576;8.568;2022-12-29T20:15:07;11.23;;;2.83;;
44304;SDS011;30019;50.576;8.568;2022-12-29T20:17:33;6.55;;;2.05;;
44304;SDS011;30019;50.576;8.568;2022-12-29T20:19:58;13.57;;;3.70;;
44304;SDS011;30019;50.576;8.568;2022-12-29T20:22:24;10.43;;;3.15;;
44304;SDS011;30019;50.576;8.568;2022-12-29T20:24:49;12.05;;;2.97;;
44304;SDS011;30019;50.576;8.568;2022-12-29T20:27:15;9.75;;;2.25;;
44304;SDS011;30019;50.576;8.568;2022-12-29T20:29:41;8.85;;;2.20;;
44304;SDS011;30019;50.576;8.568;2022-12-29T20:32:09;5.62;;;1.65;;
44304;SDS011;30019;50.576;8.568;2022-12-29T20:34:43;5.87;;;1.95;;
44304;SDS011;30019;50.576;8.568;2022-12-29T20:37:09;16.35;;;2.47;;
44304;SDS011;30019;50.576;8.568;2022-12-29T20:39:36;12.32;;;2.08;;
44304;SDS011;30019;50.576;8.568;2022-12-29T20:42:03;14.95;;;3.30;;
44304;SDS011;30019;50.576;8.568;2022-12-29T20:44:29;13.40;;;2.40;;
44304;SDS011;30019;50.576;8.568;2022-12-29T20:46:56;6.82;;;2.40;;
44304;SDS011;30019;50.576;8.568;2022-12-29T20:49:22;12.25;;;3.10;;
44304;SDS011;30019;50.576;8.568;2022-12-29T20:51:48;7.65;;;1.90;;
44304;SDS011;30019;50.576;8.568;2022-12-29T20:54:14;8.93;;;3.00;;
44304;SDS011;30019;50.576;8.568;2022-12-29T20:56:40;7.03;;;2.05;;
44304;SDS011;30019;50.576;8.568;2022-12-29T20:59:05;12.68;;;2.22;;
44304;SDS011;30019;50.576;8.568;2022-12-29T21:01:32;10.02;;;2.55;;
44304;SDS011;30019;50.576;8.568;2022-12-29T21:03:58;16.15;;;3.95;;
44304;SDS011;30019;50.576;8.568;2022-12-29T21:06:23;18.83;;;2.95;;
44304;SDS011;30019;50.576;8.568;2022-12-29T21:08:49;12.50;;;2.97;;
44304;SDS011;30019;50.576;8.568;2022-12-29T21:11:16;12.00;;;2.58;;
44304;SDS011;30019;50.576;8.568;2022-12-29T21:13:42;7.45;;;2.50;;
44304;SDS011;30019;50.576;8.568;2022-12-29T21:16:08;13.25;;;3.22;;
44304;SDS011;30019;50.576;8.568;2022-12-29T21:18:35;10.13;;;3.28;;
44304;SDS011;30019;50.576;8.568;2022-12-29T21:21:02;9.32;;;2.50;;
44304;SDS011;30019;50.576;8.568;2022-12-29T21:23:39;11.65;;;3.35;;
44304;SDS011;30019;50.576;8.568;2022-12-29T21:26:05;19.95;;;3.55;;
44304;SDS011;30019;50.576;8.568;2022-12-29T21:28:33;11.32;;;3.28;;
44304;SDS011;30019;50.576;8.568;2022-12-29T21:31:07;11.07;;;3.17;;
44304;SDS011;30019;50.576;8.568;2022-12-29T21:33:41;13.48;;;4.15;;
44304;SDS011;30019;50.576;8.568;2022-12-29T21:36:07;17.25;;;4.65;;
44304;SDS011;30019;50.576;8.568;2022-12-29T21:38:33;25.92;;;7.32;;
44304;SDS011;30019;50.576;8.568;2022-12-29T21:41:03;18.65;;;6.18;;
44304;SDS011;30019;50.576;8.568;2022-12-29T21:43:30;14.13;;;4.90;;
44304;SDS011;30019;50.576;8.568;2022-12-29T21:45:56;13.68;;;4.03;;
44304;SDS011;30019;50.576;8.568;2022-12-29T21:48:21;10.65;;;3.47;;
44304;SDS011;30019;50.576;8.568;2022-12-29T21:50:54;10.48;;;2.65;;
44304;SDS011;30019;50.576;8.568;2022-12-29T21:53:52;11.32;;;2.97;;
44304;SDS011;30019;50.576;8.568;2022-12-29T21:59:10;8.52;;;1.98;;
44304;SDS011;30019;50.576;8.568;2022-12-29T22:02:22;15.93;;;2.33;;
44304;SDS011;30019;50.576;8.568;2022-12-29T22:05:08;15.93;;;2.10;;
44304;SDS011;30019;50.576;8.568;2022-12-29T22:07:57;9.82;;;1.90;;
44304;SDS011;30019;50.576;8.568;2022-12-29T22:10:43;16.27;;;2.85;;
44304;SDS011;30019;50.576;8.568;2022-12-29T22:13:32;16.40;;;3.33;;
44304;SDS011;30019;50.576;8.568;2022-12-29T22:16:01;16.77;;;2.80;;
44304;SDS011;30019;50.576;8.568;2022-12-29T22:18:31;12.27;;;3.05;;
44304;SDS011;30019;50.576;8.568;2022-12-29T22:20:57;12.13;;;2.85;;